臺東航空站 - ATIS

METAR RCFN 130800Z VRB04KT 9999 FEW018 SCT025 FEW028TCU 32/25 Q1011 NOSIG RMK TCU NW A2988=

站台狀態:Offline
最後更新:2020-08-13 16:00:01